sensor_id;sensor_type;location;lat;lon;timestamp;temperature;humidity
45137;DHT22;30894;51.740;19.498;2023-04-06T00:02:19;-6.70;87.30
45137;DHT22;30894;51.740;19.498;2023-04-06T00:04:46;-6.80;87.50
45137;DHT22;30894;51.740;19.498;2023-04-06T00:07:12;-6.90;87.80
45137;DHT22;30894;51.740;19.498;2023-04-06T00:09:38;-7.00;88.10
45137;DHT22;30894;51.740;19.498;2023-04-06T00:12:04;-7.00;88.50
45137;DHT22;30894;51.740;19.498;2023-04-06T00:14:30;-7.00;88.60
45137;DHT22;30894;51.740;19.498;2023-04-06T00:16:56;-7.10;88.80
45137;DHT22;30894;51.740;19.498;2023-04-06T00:19:22;-7.20;89.00
45137;DHT22;30894;51.740;19.498;2023-04-06T00:21:48;-7.20;89.40
45137;DHT22;30894;51.740;19.498;2023-04-06T00:24:14;-7.30;89.60
45137;DHT22;30894;51.740;19.498;2023-04-06T00:26:41;-7.20;89.70
45137;DHT22;30894;51.740;19.498;2023-04-06T00:29:07;-7.20;89.60
45137;DHT22;30894;51.740;19.498;2023-04-06T00:31:33;-7.20;89.50
45137;DHT22;30894;51.740;19.498;2023-04-06T00:33:59;-7.20;89.60
45137;DHT22;30894;51.740;19.498;2023-04-06T00:36:25;-7.30;89.70
45137;DHT22;30894;51.740;19.498;2023-04-06T00:38:52;-7.30;90.00
45137;DHT22;30894;51.740;19.498;2023-04-06T00:41:18;-7.30;90.10
45137;DHT22;30894;51.740;19.498;2023-04-06T00:43:44;-7.30;90.20
45137;DHT22;30894;51.740;19.498;2023-04-06T00:46:10;-7.30;90.10
45137;DHT22;30894;51.740;19.498;2023-04-06T00:48:36;-7.20;90.00
45137;DHT22;30894;51.740;19.498;2023-04-06T00:51:02;-7.20;89.70
45137;DHT22;30894;51.740;19.498;2023-04-06T00:53:28;-7.20;89.80
45137;DHT22;30894;51.740;19.498;2023-04-06T00:55:55;-7.30;90.00
45137;DHT22;30894;51.740;19.498;2023-04-06T00:58:20;-7.30;90.00
45137;DHT22;30894;51.740;19.498;2023-04-06T01:00:47;-7.30;90.10
45137;DHT22;30894;51.740;19.498;2023-04-06T01:03:13;-7.30;90.10
45137;DHT22;30894;51.740;19.498;2023-04-06T01:05:39;-7.40;90.10
45137;DHT22;30894;51.740;19.498;2023-04-06T01:08:06;-7.40;90.20
45137;DHT22;30894;51.740;19.498;2023-04-06T01:10:33;-7.40;90.20
45137;DHT22;30894;51.740;19.498;2023-04-06T01:12:59;-7.40;90.30
45137;DHT22;30894;51.740;19.498;2023-04-06T01:15:27;-7.50;90.30
45137;DHT22;30894;51.740;19.498;2023-04-06T01:17:54;-7.50;90.30
45137;DHT22;30894;51.740;19.498;2023-04-06T01:20:20;-7.60;90.40
45137;DHT22;30894;51.740;19.498;2023-04-06T01:22:46;-7.50;90.40
45137;DHT22;30894;51.740;19.498;2023-04-06T01:25:12;-7.60;90.40
45137;DHT22;30894;51.740;19.498;2023-04-06T01:27:38;-7.60;90.40
45137;DHT22;30894;51.740;19.498;2023-04-06T01:30:05;-7.60;90.50
45137;DHT22;30894;51.740;19.498;2023-04-06T01:32:31;-7.60;90.30
45137;DHT22;30894;51.740;19.498;2023-04-06T01:34:57;-7.60;90.10
45137;DHT22;30894;51.740;19.498;2023-04-06T01:37:23;-7.60;90.00
45137;DHT22;30894;51.740;19.498;2023-04-06T01:39:50;-7.60;90.00
45137;DHT22;30894;51.740;19.498;2023-04-06T01:42:16;-7.60;90.10
45137;DHT22;30894;51.740;19.498;2023-04-06T01:44:42;-7.60;90.10
45137;DHT22;30894;51.740;19.498;2023-04-06T01:47:08;-7.60;90.00
45137;DHT22;30894;51.740;19.498;2023-04-06T01:49:34;-7.60;90.10
45137;DHT22;30894;51.740;19.498;2023-04-06T01:52:00;-7.40;90.10
45137;DHT22;30894;51.740;19.498;2023-04-06T01:54:26;-7.20;89.40
45137;DHT22;30894;51.740;19.498;2023-04-06T01:56:52;-7.10;88.80
45137;DHT22;30894;51.740;19.498;2023-04-06T01:59:18;-7.00;88.20
45137;DHT22;30894;51.740;19.498;2023-04-06T02:01:44;-7.00;88.50
45137;DHT22;30894;51.740;19.498;2023-04-06T02:04:11;-7.10;87.80
45137;DHT22;30894;51.740;19.498;2023-04-06T02:06:37;-7.10;87.80
45137;DHT22;30894;51.740;19.498;2023-04-06T02:09:03;-7.10;87.80
45137;DHT22;30894;51.740;19.498;2023-04-06T02:11:29;-7.20;87.90
45137;DHT22;30894;51.740;19.498;2023-04-06T02:13:56;-7.30;88.30
45137;DHT22;30894;51.740;19.498;2023-04-06T02:16:22;-7.40;88.90
45137;DHT22;30894;51.740;19.498;2023-04-06T02:18:49;-7.50;89.20
45137;DHT22;30894;51.740;19.498;2023-04-06T02:21:16;-7.60;89.60
45137;DHT22;30894;51.740;19.498;2023-04-06T02:23:46;-7.60;90.00
45137;DHT22;30894;51.740;19.498;2023-04-06T02:26:13;-7.60;90.00
45137;DHT22;30894;51.740;19.498;2023-04-06T02:28:40;-7.70;90.00
45137;DHT22;30894;51.740;19.498;2023-04-06T02:31:07;-7.80;90.10
45137;DHT22;30894;51.740;19.498;2023-04-06T02:33:33;-7.80;90.20
45137;DHT22;30894;51.740;19.498;2023-04-06T02:35:59;-7.80;90.30
45137;DHT22;30894;51.740;19.498;2023-04-06T02:38:25;-7.90;90.30
45137;DHT22;30894;51.740;19.498;2023-04-06T02:40:51;-7.90;90.40
45137;DHT22;30894;51.740;19.498;2023-04-06T02:43:17;-7.90;90.60
45137;DHT22;30894;51.740;19.498;2023-04-06T02:45:44;-7.90;90.60
45137;DHT22;30894;51.740;19.498;2023-04-06T02:48:10;-8.00;90.60
45137;DHT22;30894;51.740;19.498;2023-04-06T02:50:36;-8.00;90.70
45137;DHT22;30894;51.740;19.498;2023-04-06T02:53:02;-8.10;90.80
45137;DHT22;30894;51.740;19.498;2023-04-06T02:55:28;-8.10;91.10
45137;DHT22;30894;51.740;19.498;2023-04-06T02:57:55;-8.20;90.90
45137;DHT22;30894;51.740;19.498;2023-04-06T03:00:21;-8.20;91.00
45137;DHT22;30894;51.740;19.498;2023-04-06T03:02:49;-8.30;91.00
45137;DHT22;30894;51.740;19.498;2023-04-06T03:05:15;-8.30;91.00
45137;DHT22;30894;51.740;19.498;2023-04-06T03:07:42;-8.30;91.10
45137;DHT22;30894;51.740;19.498;2023-04-06T03:10:08;-8.30;91.20
45137;DHT22;30894;51.740;19.498;2023-04-06T03:12:35;-8.30;91.20
45137;DHT22;30894;51.740;19.498;2023-04-06T03:15:01;-8.30;91.20
45137;DHT22;30894;51.740;19.498;2023-04-06T03:17:28;-8.40;91.20
45137;DHT22;30894;51.740;19.498;2023-04-06T03:19:54;-8.30;91.20
45137;DHT22;30894;51.740;19.498;2023-04-06T03:22:21;-8.30;91.20
45137;DHT22;30894;51.740;19.498;2023-04-06T03:24:46;-8.40;91.00
45137;DHT22;30894;51.740;19.498;2023-04-06T03:27:13;-8.40;91.00
45137;DHT22;30894;51.740;19.498;2023-04-06T03:29:39;-8.40;91.20
45137;DHT22;30894;51.740;19.498;2023-04-06T03:32:05;-8.50;91.30
45137;DHT22;30894;51.740;19.498;2023-04-06T03:34:31;-8.50;91.50
45137;DHT22;30894;51.740;19.498;2023-04-06T03:36:57;-8.50;91.50
45137;DHT22;30894;51.740;19.498;2023-04-06T03:39:23;-8.50;91.50
45137;DHT22;30894;51.740;19.498;2023-04-06T03:41:49;-8.50;91.40
45137;DHT22;30894;51.740;19.498;2023-04-06T03:44:15;-8.50;91.50
45137;DHT22;30894;51.740;19.498;2023-04-06T03:46:43;-8.50;91.50
45137;DHT22;30894;51.740;19.498;2023-04-06T03:49:08;-8.40;91.20
45137;DHT22;30894;51.740;19.498;2023-04-06T03:51:35;-8.30;91.00
45137;DHT22;30894;51.740;19.498;2023-04-06T03:54:01;-8.30;90.70
45137;DHT22;30894;51.740;19.498;2023-04-06T03:56:27;-8.30;90.50
45137;DHT22;30894;51.740;19.498;2023-04-06T03:58:53;-8.40;90.40
45137;DHT22;30894;51.740;19.498;2023-04-06T04:01:20;-8.40;90.60
45137;DHT22;30894;51.740;19.498;2023-04-06T04:03:46;-8.50;90.70
45137;DHT22;30894;51.740;19.498;2023-04-06T04:06:13;-8.40;90.70
45137;DHT22;30894;51.740;19.498;2023-04-06T04:08:39;-8.40;90.70
45137;DHT22;30894;51.740;19.498;2023-04-06T04:11:06;-8.30;90.60
45137;DHT22;30894;51.740;19.498;2023-04-06T04:13:31;-8.10;90.50
45137;DHT22;30894;51.740;19.498;2023-04-06T04:15:58;-7.90;90.30
45137;DHT22;30894;51.740;19.498;2023-04-06T04:18:24;-7.70;90.10
45137;DHT22;30894;51.740;19.498;2023-04-06T04:20:50;-7.60;89.70
45137;DHT22;30894;51.740;19.498;2023-04-06T04:23:16;-7.30;89.20
45137;DHT22;30894;51.740;19.498;2023-04-06T04:25:43;-7.20;88.50
45137;DHT22;30894;51.740;19.498;2023-04-06T04:28:09;-7.00;87.90
45137;DHT22;30894;51.740;19.498;2023-04-06T04:30:35;-6.70;87.30
45137;DHT22;30894;51.740;19.498;2023-04-06T04:33:01;-6.50;86.70
45137;DHT22;30894;51.740;19.498;2023-04-06T04:35:28;-6.30;86.10
45137;DHT22;30894;51.740;19.498;2023-04-06T04:37:54;-6.10;85.50
45137;DHT22;30894;51.740;19.498;2023-04-06T04:40:20;-5.90;85.00
45137;DHT22;30894;51.740;19.498;2023-04-06T04:42:46;-5.70;84.50
45137;DHT22;30894;51.740;19.498;2023-04-06T04:45:12;-5.50;84.00
45137;DHT22;30894;51.740;19.498;2023-04-06T04:47:38;-5.30;83.60
45137;DHT22;30894;51.740;19.498;2023-04-06T04:50:05;-5.20;83.20
45137;DHT22;30894;51.740;19.498;2023-04-06T04:52:32;-5.00;82.90
45137;DHT22;30894;51.740;19.498;2023-04-06T04:54:58;-4.90;82.60
45137;DHT22;30894;51.740;19.498;2023-04-06T04:57:24;-4.80;82.30
45137;DHT22;30894;51.740;19.498;2023-04-06T04:59:50;-4.60;82.70
45137;DHT22;30894;51.740;19.498;2023-04-06T05:02:16;-4.40;81.80
45137;DHT22;30894;51.740;19.498;2023-04-06T05:04:43;-4.30;81.50
45137;DHT22;30894;51.740;19.498;2023-04-06T05:07:09;-4.20;81.20
45137;DHT22;30894;51.740;19.498;2023-04-06T05:09:36;-4.10;81.00
45137;DHT22;30894;51.740;19.498;2023-04-06T05:12:02;-3.90;80.80
45137;DHT22;30894;51.740;19.498;2023-04-06T05:14:28;-3.80;80.50
45137;DHT22;30894;51.740;19.498;2023-04-06T05:16:54;-3.60;80.30
45137;DHT22;30894;51.740;19.498;2023-04-06T05:19:21;-3.40;79.90
45137;DHT22;30894;51.740;19.498;2023-04-06T05:21:47;-3.20;79.60
45137;DHT22;30894;51.740;19.498;2023-04-06T05:24:14;-3.10;79.20
45137;DHT22;30894;51.740;19.498;2023-04-06T05:26:40;-2.90;79.00
45137;DHT22;30894;51.740;19.498;2023-04-06T05:29:07;-2.80;78.80
45137;DHT22;30894;51.740;19.498;2023-04-06T05:31:33;-2.70;78.60
45137;DHT22;30894;51.740;19.498;2023-04-06T05:33:59;-2.50;78.40
45137;DHT22;30894;51.740;19.498;2023-04-06T05:36:25;-2.40;78.20
45137;DHT22;30894;51.740;19.498;2023-04-06T05:38:52;-2.20;78.00
45137;DHT22;30894;51.740;19.498;2023-04-06T05:41:18;-2.00;77.70
45137;DHT22;30894;51.740;19.498;2023-04-06T05:43:44;-1.90;77.40
45137;DHT22;30894;51.740;19.498;2023-04-06T05:46:10;-1.80;77.20
45137;DHT22;30894;51.740;19.498;2023-04-06T05:48:37;-1.70;77.00
45137;DHT22;30894;51.740;19.498;2023-04-06T05:51:02;-1.60;77.00
45137;DHT22;30894;51.740;19.498;2023-04-06T05:53:32;-1.60;77.00
45137;DHT22;30894;51.740;19.498;2023-04-06T05:56:02;-1.50;77.00
45137;DHT22;30894;51.740;19.498;2023-04-06T05:58:29;-1.40;76.90
45137;DHT22;30894;51.740;19.498;2023-04-06T06:01:02;-1.30;76.90
45137;DHT22;30894;51.740;19.498;2023-04-06T06:03:29;-1.20;76.80
45137;DHT22;30894;51.740;19.498;2023-04-06T06:06:04;-1.10;76.60
45137;DHT22;30894;51.740;19.498;2023-04-06T06:08:31;-1.00;77.10
45137;DHT22;30894;51.740;19.498;2023-04-06T06:10:57;-0.90;76.30
45137;DHT22;30894;51.740;19.498;2023-04-06T06:13:23;-0.80;76.20
45137;DHT22;30894;51.740;19.498;2023-04-06T06:15:50;-0.70;76.10
45137;DHT22;30894;51.740;19.498;2023-04-06T06:18:16;-0.60;76.00
45137;DHT22;30894;51.740;19.498;2023-04-06T06:20:42;-0.50;76.00
45137;DHT22;30894;51.740;19.498;2023-04-06T06:23:09;-0.40;75.90
45137;DHT22;30894;51.740;19.498;2023-04-06T06:25:35;-0.30;75.80
45137;DHT22;30894;51.740;19.498;2023-04-06T06:28:01;-0.20;75.70
45137;DHT22;30894;51.740;19.498;2023-04-06T06:30:27;-0.10;75.40
45137;DHT22;30894;51.740;19.498;2023-04-06T06:32:53;0.10;75.30
45137;DHT22;30894;51.740;19.498;2023-04-06T06:35:19;0.20;75.00
45137;DHT22;30894;51.740;19.498;2023-04-06T06:37:45;0.30;74.70
45137;DHT22;30894;51.740;19.498;2023-04-06T06:40:11;0.50;74.50
45137;DHT22;30894;51.740;19.498;2023-04-06T06:42:39;0.60;74.30
45137;DHT22;30894;51.740;19.498;2023-04-06T06:45:06;0.70;74.10
45137;DHT22;30894;51.740;19.498;2023-04-06T06:47:33;0.80;73.90
45137;DHT22;30894;51.740;19.498;2023-04-06T06:49:59;0.90;73.80
45137;DHT22;30894;51.740;19.498;2023-04-06T06:52:25;1.00;73.60
45137;DHT22;30894;51.740;19.498;2023-04-06T06:54:51;1.10;73.50
45137;DHT22;30894;51.740;19.498;2023-04-06T06:57:17;1.20;73.40
45137;DHT22;30894;51.740;19.498;2023-04-06T06:59:43;1.30;73.30
45137;DHT22;30894;51.740;19.498;2023-04-06T07:02:09;1.40;73.20
45137;DHT22;30894;51.740;19.498;2023-04-06T07:04:35;1.60;73.10
45137;DHT22;30894;51.740;19.498;2023-04-06T07:07:03;1.70;72.80
45137;DHT22;30894;51.740;19.498;2023-04-06T07:09:29;1.90;72.50
45137;DHT22;30894;51.740;19.498;2023-04-06T07:11:55;2.10;72.20
45137;DHT22;30894;51.740;19.498;2023-04-06T07:14:22;2.30;71.80
45137;DHT22;30894;51.740;19.498;2023-04-06T07:16:48;2.60;71.30
45137;DHT22;30894;51.740;19.498;2023-04-06T07:19:15;2.90;70.80
45137;DHT22;30894;51.740;19.498;2023-04-06T07:21:41;3.20;71.00
45137;DHT22;30894;51.740;19.498;2023-04-06T07:24:07;3.50;69.80
45137;DHT22;30894;51.740;19.498;2023-04-06T07:26:33;3.70;69.40
45137;DHT22;30894;51.740;19.498;2023-04-06T07:29:00;3.90;69.00
45137;DHT22;30894;51.740;19.498;2023-04-06T07:31:26;4.10;68.60
45137;DHT22;30894;51.740;19.498;2023-04-06T07:33:52;4.20;68.30
45137;DHT22;30894;51.740;19.498;2023-04-06T07:36:18;4.30;68.10
45137;DHT22;30894;51.740;19.498;2023-04-06T07:38:44;4.40;67.90
45137;DHT22;30894;51.740;19.498;2023-04-06T07:41:11;4.60;67.80
45137;DHT22;30894;51.740;19.498;2023-04-06T07:43:38;4.70;67.60
45137;DHT22;30894;51.740;19.498;2023-04-06T07:46:04;4.80;67.50
45137;DHT22;30894;51.740;19.498;2023-04-06T07:48:31;4.90;67.40
45137;DHT22;30894;51.740;19.498;2023-04-06T07:51:04;4.90;67.40
45137;DHT22;30894;51.740;19.498;2023-04-06T07:53:30;5.10;67.30
45137;DHT22;30894;51.740;19.498;2023-04-06T07:55:58;5.30;67.10
45137;DHT22;30894;51.740;19.498;2023-04-06T07:58:24;5.50;66.90
45137;DHT22;30894;51.740;19.498;2023-04-06T08:00:50;5.60;66.60
45137;DHT22;30894;51.740;19.498;2023-04-06T08:03:17;5.80;66.40
45137;DHT22;30894;51.740;19.498;2023-04-06T08:05:46;6.00;66.20
45137;DHT22;30894;51.740;19.498;2023-04-06T08:08:12;6.10;66.10
45137;DHT22;30894;51.740;19.498;2023-04-06T08:10:38;6.30;65.90
45137;DHT22;30894;51.740;19.498;2023-04-06T08:13:04;6.50;65.70
45137;DHT22;30894;51.740;19.498;2023-04-06T08:15:30;6.90;65.40
45137;DHT22;30894;51.740;19.498;2023-04-06T08:17:57;7.20;64.90
45137;DHT22;30894;51.740;19.498;2023-04-06T08:20:23;7.40;64.60
45137;DHT22;30894;51.740;19.498;2023-04-06T08:22:49;7.70;64.30
45137;DHT22;30894;51.740;19.498;2023-04-06T08:25:15;8.00;63.80
45137;DHT22;30894;51.740;19.498;2023-04-06T08:27:41;8.50;63.40
45137;DHT22;30894;51.740;19.498;2023-04-06T08:30:08;9.10;62.60
45137;DHT22;30894;51.740;19.498;2023-04-06T08:32:34;9.50;61.80
45137;DHT22;30894;51.740;19.498;2023-04-06T08:35:01;9.90;61.30
45137;DHT22;30894;51.740;19.498;2023-04-06T08:37:28;10.00;61.00
45137;DHT22;30894;51.740;19.498;2023-04-06T08:39:54;10.00;61.00
45137;DHT22;30894;51.740;19.498;2023-04-06T08:42:21;9.70;61.20
45137;DHT22;30894;51.740;19.498;2023-04-06T08:44:51;9.60;61.70
45137;DHT22;30894;51.740;19.498;2023-04-06T08:47:19;9.50;62.10
45137;DHT22;30894;51.740;19.498;2023-04-06T08:49:46;9.40;62.30
45137;DHT22;30894;51.740;19.498;2023-04-06T08:52:13;9.40;62.50
45137;DHT22;30894;51.740;19.498;2023-04-06T08:54:41;9.30;62.60
45137;DHT22;30894;51.740;19.498;2023-04-06T08:57:08;9.30;62.70
45137;DHT22;30894;51.740;19.498;2023-04-06T08:59:35;9.30;62.90
45137;DHT22;30894;51.740;19.498;2023-04-06T09:02:04;9.20;63.00
45137;DHT22;30894;51.740;19.498;2023-04-06T09:04:32;9.20;63.10
45137;DHT22;30894;51.740;19.498;2023-04-06T09:07:00;9.20;63.20
45137;DHT22;30894;51.740;19.498;2023-04-06T09:09:26;9.20;63.30
45137;DHT22;30894;51.740;19.498;2023-04-06T09:11:52;9.30;63.30
45137;DHT22;30894;51.740;19.498;2023-04-06T09:14:35;9.30;63.10
45137;DHT22;30894;51.740;19.498;2023-04-06T09:17:03;9.30;63.80
45137;DHT22;30894;51.740;19.498;2023-04-06T09:19:29;9.00;63.40
45137;DHT22;30894;51.740;19.498;2023-04-06T09:22:05;8.90;63.80
45137;DHT22;30894;51.740;19.498;2023-04-06T09:24:42;8.80;64.10
45137;DHT22;30894;51.740;19.498;2023-04-06T09:27:09;8.90;64.20
45137;DHT22;30894;51.740;19.498;2023-04-06T09:29:35;8.90;64.00
45137;DHT22;30894;51.740;19.498;2023-04-06T09:32:06;9.00;63.80
45137;DHT22;30894;51.740;19.498;2023-04-06T09:34:33;9.00;63.80
45137;DHT22;30894;51.740;19.498;2023-04-06T09:37:00;9.00;63.90
45137;DHT22;30894;51.740;19.498;2023-04-06T09:39:26;9.10;63.90
45137;DHT22;30894;51.740;19.498;2023-04-06T09:41:53;9.30;63.60
45137;DHT22;30894;51.740;19.498;2023-04-06T09:44:20;9.50;63.30
45137;DHT22;30894;51.740;19.498;2023-04-06T09:46:46;9.60;63.10
45137;DHT22;30894;51.740;19.498;2023-04-06T09:49:13;9.70;63.00
45137;DHT22;30894;51.740;19.498;2023-04-06T09:51:42;9.80;62.70
45137;DHT22;30894;51.740;19.498;2023-04-06T09:54:15;9.90;62.70
45137;DHT22;30894;51.740;19.498;2023-04-06T10:00:08;9.90;62.70
45137;DHT22;30894;51.740;19.498;2023-04-06T10:06:13;10.00;62.50
45137;DHT22;30894;51.740;19.498;2023-04-06T10:08:41;10.00;62.60
45137;DHT22;30894;51.740;19.498;2023-04-06T10:11:11;9.90;62.70
45137;DHT22;30894;51.740;19.498;2023-04-06T10:13:37;9.90;62.80
45137;DHT22;30894;51.740;19.498;2023-04-06T10:16:04;9.90;62.80
45137;DHT22;30894;51.740;19.498;2023-04-06T10:18:31;9.80;63.00
45137;DHT22;30894;51.740;19.498;2023-04-06T10:21:08;9.70;63.10
45137;DHT22;30894;51.740;19.498;2023-04-06T10:23:43;9.60;63.30
45137;DHT22;30894;51.740;19.498;2023-04-06T10:26:16;9.60;63.40
45137;DHT22;30894;51.740;19.498;2023-04-06T10:28:47;9.50;63.50
45137;DHT22;30894;51.740;19.498;2023-04-06T10:31:13;9.50;63.60
45137;DHT22;30894;51.740;19.498;2023-04-06T10:33:40;9.40;63.70
45137;DHT22;30894;51.740;19.498;2023-04-06T10:36:14;9.40;63.70
45137;DHT22;30894;51.740;19.498;2023-04-06T10:38:47;9.40;63.80
45137;DHT22;30894;51.740;19.498;2023-04-06T10:41:20;9.20;63.80
45137;DHT22;30894;51.740;19.498;2023-04-06T10:43:55;9.10;64.00
45137;DHT22;30894;51.740;19.498;2023-04-06T10:46:29;9.00;64.30
45137;DHT22;30894;51.740;19.498;2023-04-06T10:48:57;9.00;64.40
45137;DHT22;30894;51.740;19.498;2023-04-06T10:51:28;9.10;64.20
45137;DHT22;30894;51.740;19.498;2023-04-06T10:53:55;9.30;64.00
45137;DHT22;30894;51.740;19.498;2023-04-06T10:56:23;9.50;64.50
45137;DHT22;30894;51.740;19.498;2023-04-06T10:58:53;9.60;63.60
45137;DHT22;30894;51.740;19.498;2023-04-06T11:01:24;9.70;63.30
45137;DHT22;30894;51.740;19.498;2023-04-06T11:03:55;9.80;63.40
45137;DHT22;30894;51.740;19.498;2023-04-06T11:06:28;10.00;62.90
45137;DHT22;30894;51.740;19.498;2023-04-06T11:08:57;10.40;62.50
45137;DHT22;30894;51.740;19.498;2023-04-06T11:11:26;10.50;62.10
45137;DHT22;30894;51.740;19.498;2023-04-06T11:13:54;10.80;61.90
45137;DHT22;30894;51.740;19.498;2023-04-06T11:16:29;10.80;61.70
45137;DHT22;30894;51.740;19.498;2023-04-06T11:19:04;10.90;61.60
45137;DHT22;30894;51.740;19.498;2023-04-06T11:21:39;10.90;61.60
45137;DHT22;30894;51.740;19.498;2023-04-06T11:24:09;10.80;61.70
45137;DHT22;30894;51.740;19.498;2023-04-06T11:26:51;10.70;61.90
45137;DHT22;30894;51.740;19.498;2023-04-06T11:29:19;10.40;62.10
45137;DHT22;30894;51.740;19.498;2023-04-06T11:31:49;10.40;62.30
45137;DHT22;30894;51.740;19.498;2023-04-06T11:34:21;10.30;62.50
45137;DHT22;30894;51.740;19.498;2023-04-06T11:36:54;10.20;62.60
45137;DHT22;30894;51.740;19.498;2023-04-06T11:39:23;10.10;62.80
45137;DHT22;30894;51.740;19.498;2023-04-06T11:42:08;9.90;63.10
45137;DHT22;30894;51.740;19.498;2023-04-06T11:44:36;9.70;63.50
45137;DHT22;30894;51.740;19.498;2023-04-06T11:47:08;9.50;63.90
45137;DHT22;30894;51.740;19.498;2023-04-06T11:49:42;9.20;64.20
45137;DHT22;30894;51.740;19.498;2023-04-06T11:52:22;9.10;64.50
45137;DHT22;30894;51.740;19.498;2023-04-06T11:54:51;9.00;64.80
45137;DHT22;30894;51.740;19.498;2023-04-06T11:57:19;9.00;65.00
45137;DHT22;30894;51.740;19.498;2023-04-06T11:59:47;8.90;65.00
45137;DHT22;30894;51.740;19.498;2023-04-06T12:02:13;8.80;65.20
45137;DHT22;30894;51.740;19.498;2023-04-06T12:04:39;8.70;65.30
45137;DHT22;30894;51.740;19.498;2023-04-06T12:07:05;8.50;65.60
45137;DHT22;30894;51.740;19.498;2023-04-06T12:09:31;8.40;65.90
45137;DHT22;30894;51.740;19.498;2023-04-06T12:11:58;8.10;66.20
45137;DHT22;30894;51.740;19.498;2023-04-06T12:14:24;8.00;66.40
45137;DHT22;30894;51.740;19.498;2023-04-06T12:16:50;7.90;66.70
45137;DHT22;30894;51.740;19.498;2023-04-06T12:19:16;7.90;66.80
45137;DHT22;30894;51.740;19.498;2023-04-06T12:21:42;7.80;66.80
45137;DHT22;30894;51.740;19.498;2023-04-06T12:24:08;7.80;67.00
45137;DHT22;30894;51.740;19.498;2023-04-06T12:26:34;7.70;67.00
45137;DHT22;30894;51.740;19.498;2023-04-06T12:29:01;7.70;67.20
45137;DHT22;30894;51.740;19.498;2023-04-06T12:31:34;7.60;67.20
45137;DHT22;30894;51.740;19.498;2023-04-06T12:34:01;7.60;67.40
45137;DHT22;30894;51.740;19.498;2023-04-06T12:36:28;7.60;67.40
45137;DHT22;30894;51.740;19.498;2023-04-06T12:38:55;7.50;67.40
45137;DHT22;30894;51.740;19.498;2023-04-06T12:41:21;7.50;67.50
45137;DHT22;30894;51.740;19.498;2023-04-06T12:43:48;7.40;67.60
45137;DHT22;30894;51.740;19.498;2023-04-06T12:46:15;7.40;67.70
45137;DHT22;30894;51.740;19.498;2023-04-06T12:48:42;7.30;67.80
45137;DHT22;30894;51.740;19.498;2023-04-06T12:51:08;7.20;68.00
45137;DHT22;30894;51.740;19.498;2023-04-06T12:53:35;7.10;68.10
45137;DHT22;30894;51.740;19.498;2023-04-06T12:56:01;7.00;68.40
45137;DHT22;30894;51.740;19.498;2023-04-06T12:58:28;6.80;68.60
45137;DHT22;30894;51.740;19.498;2023-04-06T13:00:55;6.60;68.90
45137;DHT22;30894;51.740;19.498;2023-04-06T13:03:23;6.40;69.30
45137;DHT22;30894;51.740;19.498;2023-04-06T13:05:50;6.10;69.70
45137;DHT22;30894;51.740;19.498;2023-04-06T13:08:18;6.00;70.10
45137;DHT22;30894;51.740;19.498;2023-04-06T13:10:50;5.80;70.50
45137;DHT22;30894;51.740;19.498;2023-04-06T13:13:28;5.60;70.80
45137;DHT22;30894;51.740;19.498;2023-04-06T13:16:07;5.40;71.00
45137;DHT22;30894;51.740;19.498;2023-04-06T13:18:34;5.30;71.30
45137;DHT22;30894;51.740;19.498;2023-04-06T13:21:02;5.20;71.50
45137;DHT22;30894;51.740;19.498;2023-04-06T13:23:29;5.10;71.70
45137;DHT22;30894;51.740;19.498;2023-04-06T13:26:03;4.90;71.90
45137;DHT22;30894;51.740;19.498;2023-04-06T13:28:31;4.70;72.20
45137;DHT22;30894;51.740;19.498;2023-04-06T13:30:59;4.60;72.50
45137;DHT22;30894;51.740;19.498;2023-04-06T13:33:26;4.50;72.80
45137;DHT22;30894;51.740;19.498;2023-04-06T13:35:53;4.40;73.00
45137;DHT22;30894;51.740;19.498;2023-04-06T13:38:20;4.30;73.10
45137;DHT22;30894;51.740;19.498;2023-04-06T13:40:46;4.20;73.20
45137;DHT22;30894;51.740;19.498;2023-04-06T13:43:12;4.20;73.30
45137;DHT22;30894;51.740;19.498;2023-04-06T13:45:39;4.10;73.40
45137;DHT22;30894;51.740;19.498;2023-04-06T13:48:05;4.00;73.50
45137;DHT22;30894;51.740;19.498;2023-04-06T13:50:33;3.90;73.50
45137;DHT22;30894;51.740;19.498;2023-04-06T13:52:59;3.90;73.70
45137;DHT22;30894;51.740;19.498;2023-04-06T13:55:25;3.70;73.80
45137;DHT22;30894;51.740;19.498;2023-04-06T13:57:52;3.60;74.00
45137;DHT22;30894;51.740;19.498;2023-04-06T14:00:18;3.60;74.30
45137;DHT22;30894;51.740;19.498;2023-04-06T14:02:45;3.60;74.30
45137;DHT22;30894;51.740;19.498;2023-04-06T14:05:11;3.40;74.30
45137;DHT22;30894;51.740;19.498;2023-04-06T14:07:37;3.40;74.50
45137;DHT22;30894;51.740;19.498;2023-04-06T14:10:03;3.40;74.50
45137;DHT22;30894;51.740;19.498;2023-04-06T14:12:31;3.40;74.60
45137;DHT22;30894;51.740;19.498;2023-04-06T14:14:57;3.30;74.60
45137;DHT22;30894;51.740;19.498;2023-04-06T14:17:23;3.30;74.70
45137;DHT22;30894;51.740;19.498;2023-04-06T14:19:50;3.20;74.80
45137;DHT22;30894;51.740;19.498;2023-04-06T14:22:17;3.20;74.90
45137;DHT22;30894;51.740;19.498;2023-04-06T14:24:44;3.10;75.00
45137;DHT22;30894;51.740;19.498;2023-04-06T14:27:10;3.00;75.20
45137;DHT22;30894;51.740;19.498;2023-04-06T14:29:36;2.90;75.30
45137;DHT22;30894;51.740;19.498;2023-04-06T14:32:03;2.80;75.40
45137;DHT22;30894;51.740;19.498;2023-04-06T14:34:29;2.80;75.60
45137;DHT22;30894;51.740;19.498;2023-04-06T14:36:55;2.70;75.80
45137;DHT22;30894;51.740;19.498;2023-04-06T14:39:21;2.50;75.80
45137;DHT22;30894;51.740;19.498;2023-04-06T14:41:47;2.50;76.10
45137;DHT22;30894;51.740;19.498;2023-04-06T14:44:15;2.40;76.10
45137;DHT22;30894;51.740;19.498;2023-04-06T14:46:42;2.40;76.30
45137;DHT22;30894;51.740;19.498;2023-04-06T14:49:08;2.30;76.40
45137;DHT22;30894;51.740;19.498;2023-04-06T14:51:35;2.20;76.50
45137;DHT22;30894;51.740;19.498;2023-04-06T14:54:02;2.20;76.50
45137;DHT22;30894;51.740;19.498;2023-04-06T14:56:29;2.20;76.70
45137;DHT22;30894;51.740;19.498;2023-04-06T14:58:59;2.10;76.70
45137;DHT22;30894;51.740;19.498;2023-04-06T15:01:34;2.00;76.80
45137;DHT22;30894;51.740;19.498;2023-04-06T15:04:03;2.00;77.00
45137;DHT22;30894;51.740;19.498;2023-04-06T15:06:30;1.90;77.10
45137;DHT22;30894;51.740;19.498;2023-04-06T15:08:56;1.80;77.20
45137;DHT22;30894;51.740;19.498;2023-04-06T15:11:22;1.80;77.40
45137;DHT22;30894;51.740;19.498;2023-04-06T15:13:48;1.70;77.40
45137;DHT22;30894;51.740;19.498;2023-04-06T15:16:14;1.60;77.60
45137;DHT22;30894;51.740;19.498;2023-04-06T15:18:41;1.60;77.70
45137;DHT22;30894;51.740;19.498;2023-04-06T15:21:07;1.50;77.80
45137;DHT22;30894;51.740;19.498;2023-04-06T15:23:33;1.40;77.90
45137;DHT22;30894;51.740;19.498;2023-04-06T15:26:00;1.40;78.00
45137;DHT22;30894;51.740;19.498;2023-04-06T15:28:27;1.30;78.20
45137;DHT22;30894;51.740;19.498;2023-04-06T15:30:55;1.20;78.20
45137;DHT22;30894;51.740;19.498;2023-04-06T15:33:21;1.20;78.30